Time;durP1;ratioP1;P1;durP2;ratioP2;P2;SDS_P1;SDS_P2;PMS_P1;PMS_P2;Temp;Humidity;BMP_temperature;BMP_pressure;BME280_temperature;BME280_humidity;BME280_pressure;Samples;Min_cycle;Max_cycle;Signal;HPM_P1;HPM_P2
2023/05/24 00:00:00;;;;;;;;;;;;;;;;;;5050498;28;19967;-68
2023/05/24 00:02:27;;;;;;;;;;;;;;;;;;5051393;28;20361;-68
2023/05/24 00:04:54;;;;;;;;;;;;;;;;;;5050124;28;19925;-69
2023/05/24 00:07:21;;;;;;;;;;;;;;;;;;5046095;28;19975;-68
2023/05/24 00:09:48;;;;;;;;;;;;;;;;;;5048074;28;20403;-68
2023/05/24 00:12:15;;;;;;;;;;;;;;;;;;5049807;28;19929;-68
2023/05/24 00:14:42;;;;;;;;;;;;;;;;;;5050604;28;19963;-68
2023/05/24 00:17:11;;;;;;;;;;;;;;;;;;5050199;28;19980;-68
2023/05/24 00:19:39;;;;;;;;;;;;;;;;;;5040464;28;19971;-67
2023/05/24 00:22:05;;;;;;;;;;;;;;;;;;5051289;28;19964;-67
2023/05/24 00:24:32;;;;;;;;;;;;;;;;;;5069536;28;19994;-67
2023/05/24 00:26:59;;;;;;;;;;;;;;;;;;5052830;28;19928;-69
2023/05/24 00:29:26;;;;;;;;;;;;;;;;;;5050175;28;20384;-68
2023/05/24 00:31:53;;;;;;;;;;;;;;;;;;5051329;28;19932;-68
2023/05/24 00:34:20;;;;;;;;;;;;;;;;;;5051123;28;19971;-68
2023/05/24 00:36:47;;;;;;;;;;;;;;;;;;5049997;28;19930;-68
2023/05/24 00:39:14;;;;;;;;;;;;;;;;;;5051808;28;19928;-68
2023/05/24 00:41:41;;;;;;;;;;;;;;;;;;5058072;28;19925;-68
2023/05/24 00:44:09;;;;;;;;;;;;;;;;;;5053336;28;19924;-68
2023/05/24 00:46:36;;;;;;;;;;;;;;;;;;5054202;28;19925;-68
2023/05/24 00:49:03;;;;;;;;;;;;;;;;;;5036078;28;20394;-69
2023/05/24 00:51:31;;;;;;;;;;;;;;;;;;5055640;28;19925;-68
2023/05/24 00:53:58;;;;;;;;;;;;;;;;;;5056802;28;19924;-69
2023/05/24 00:56:25;;;;;;;;;;;;;;;;;;5052740;28;19925;-68
2023/05/24 00:58:53;;;;;;;;;;;;;;;;;;5053428;28;19931;-68
2023/05/24 01:01:20;;;;;;;;;;;;;;;;;;5053563;28;19932;-68
2023/05/24 01:03:47;;;;;;;;;;;;;;;;;;5053622;28;19937;-68
2023/05/24 01:06:16;;;;;;;;;;;;;;;;;;5050687;28;19962;-68
2023/05/24 01:08:43;;;;;;;;;;;;;;;;;;5053221;28;19932;-68
2023/05/24 01:11:10;;;;;;;;;;;;;;;;;;5053010;28;20366;-68
2023/05/24 01:13:37;;;;;;;;;;;;;;;;;;5054917;28;19929;-69
2023/05/24 01:16:04;;;;;;;;;;;;;;;;;;5053382;28;20620;-68
2023/05/24 01:18:31;;;;;;;;;;;;;;;;;;5054150;28;20034;-68
2023/05/24 01:20:58;;;;;;;;;;;;;;;;;;5051145;28;19972;-68
2023/05/24 01:23:25;;;;;;;;;;;;;;;;;;5053290;28;20391;-68
2023/05/24 01:25:52;;;;;;;;;;;;;;;;;;5052167;28;20611;-68
2023/05/24 01:28:19;;;;;;;;;;;;;;;;;;5053119;28;19925;-68
2023/05/24 01:30:46;;;;;;;;;;;;;;;;;;5053440;28;19983;-68
2023/05/24 01:33:13;;;;;;;;;;;;;;;;;;5052883;28;19929;-69
2023/05/24 01:35:41;;;;;;;;;;;;;;;;;;5053481;28;20459;-68
2023/05/24 01:38:08;;;;;;;;;;;;;;;;;;5052483;28;19935;-68
2023/05/24 01:40:35;;;;;;;;;;;;;;;;;;5051996;28;19932;-68
2023/05/24 01:43:02;;;;;;;;;;;;;;;;;;5050898;28;19925;-68
2023/05/24 01:45:29;;;;;;;;;;;;;;;;;;5051287;28;19925;-68
2023/05/24 01:47:56;;;;;;;;;;;;;;;;;;5052638;28;19929;-68
2023/05/24 01:50:23;;;;;;;;;;;;;;;;;;5053334;28;20025;-68
2023/05/24 01:52:50;;;;;;;;;;;;;;;;;;5052187;28;19925;-68
2023/05/24 01:55:17;;;;;;;;;;;;;;;;;;5052188;28;19925;-68
2023/05/24 01:57:44;;;;;;;;;;;;;;;;;;5050287;28;19932;-68
2023/05/24 02:00:11;;;;;;;;;;;;;;;;;;5051904;28;19960;-68
2023/05/24 02:02:38;;;;;;;;;;;;;;;;;;5051732;28;20011;-68
2023/05/24 02:05:05;;;;;;;;;;;;;;;;;;5053431;28;20388;-69
2023/05/24 02:07:32;;;;;;;;;;;;;;;;;;5050923;28;19933;-68
2023/05/24 02:09:59;;;;;;;;;;;;;;;;;;5053401;28;20430;-68
2023/05/24 02:12:26;;;;;;;;;;;;;;;;;;5050575;28;19974;-68
2023/05/24 02:14:54;;;;;;;;;;;;;;;;;;5052879;28;19947;-68
2023/05/24 02:17:21;;;;;;;;;;;;;;;;;;5048254;28;19964;-68
2023/05/24 02:19:48;;;;;;;;;;;;;;;;;;5050974;28;19932;-68
2023/05/24 02:22:15;;;;;;;;;;;;;;;;;;5051292;28;19924;-68
2023/05/24 02:24:42;;;;;;;;;;;;;;;;;;5053325;28;19964;-68
2023/05/24 02:27:09;;;;;;;;;;;;;;;;;;5052627;28;20376;-68
2023/05/24 02:29:36;;;;;;;;;;;;;;;;;;5053091;28;19928;-68
2023/05/24 02:32:03;;;;;;;;;;;;;;;;;;5051128;28;19960;-68
2023/05/24 02:34:30;;;;;;;;;;;;;;;;;;5051450;28;20319;-68
2023/05/24 02:36:57;;;;;;;;;;;;;;;;;;5052008;28;19971;-67
2023/05/24 02:39:25;;;;;;;;;;;;;;;;;;5061491;28;20291;-68
2023/05/24 02:41:52;;;;;;;;;;;;;;;;;;5073270;28;19924;-68
2023/05/24 02:44:19;;;;;;;;;;;;;;;;;;5053888;28;20387;-67
2023/05/24 02:46:46;;;;;;;;;;;;;;;;;;5053159;28;19967;-67
2023/05/24 02:49:13;;;;;;;;;;;;;;;;;;5052930;28;19925;-67
2023/05/24 02:51:40;;;;;;;;;;;;;;;;;;5052955;28;19932;-67
2023/05/24 02:54:07;;;;;;;;;;;;;;;;;;5041489;28;19964;-67
2023/05/24 02:56:34;;;;;;;;;;;;;;;;;;5050156;28;20022;-67
2023/05/24 02:59:01;;;;;;;;;;;;;;;;;;5048224;28;19925;-67
2023/05/24 03:01:28;;;;;;;;;;;;;;;;;;5046651;28;19932;-67
2023/05/24 03:03:55;;;;;;;;;;;;;;;;;;5049475;28;19994;-68
2023/05/24 03:06:22;;;;;;;;;;;;;;;;;;5050539;28;19978;-68
2023/05/24 03:08:49;;;;;;;;;;;;;;;;;;5051939;28;19925;-68
2023/05/24 03:11:20;;;;;;;;;;;;;;;;;;5051547;28;20015;-68
2023/05/24 03:13:47;;;;;;;;;;;;;;;;;;5051275;28;20379;-69
2023/05/24 03:16:15;;;;;;;;;;;;;;;;;;5049474;28;19979;-68
2023/05/24 03:18:42;;;;;;;;;;;;;;;;;;5045780;28;19925;-68
2023/05/24 03:21:09;;;;;;;;;;;;;;;;;;5046356;28;19924;-68
2023/05/24 03:23:36;;;;;;;;;;;;;;;;;;5049435;28;20429;-69
2023/05/24 03:26:03;;;;;;;;;;;;;;;;;;5051268;28;19925;-68
2023/05/24 03:28:32;;;;;;;;;;;;;;;;;;5039274;28;19925;-68
2023/05/24 03:30:59;;;;;;;;;;;;;;;;;;5052067;28;20361;-68
2023/05/24 03:33:26;;;;;;;;;;;;;;;;;;5051933;28;20013;-68
2023/05/24 03:35:53;;;;;;;;;;;;;;;;;;5050697;28;19937;-70
2023/05/24 03:38:20;;;;;;;;;;;;;;;;;;5050311;28;19932;-69
2023/05/24 03:40:47;;;;;;;;;;;;;;;;;;5052202;28;19928;-68
2023/05/24 03:43:15;;;;;;;;;;;;;;;;;;5050547;28;19968;-69
2023/05/24 03:45:42;;;;;;;;;;;;;;;;;;5050944;28;20647;-68
2023/05/24 03:48:10;;;;;;;;;;;;;;;;;;5051159;28;19971;-68
2023/05/24 03:50:37;;;;;;;;;;;;;;;;;;5049292;28;19925;-68
2023/05/24 03:53:04;;;;;;;;;;;;;;;;;;5043146;28;20352;-68
2023/05/24 03:55:31;;;;;;;;;;;;;;;;;;5051214;28;19928;-68
2023/05/24 03:57:58;;;;;;;;;;;;;;;;;;5050828;28;20542;-68
2023/05/24 04:00:25;;;;;;;;;;;;;;;;;;5049588;28;19963;-68
2023/05/24 04:02:52;;;;;;;;;;;;;;;;;;5049553;28;19968;-69
2023/05/24 04:05:19;;;;;;;;;;;;;;;;;;5048676;28;19998;-68
2023/05/24 04:07:46;;;;;;;;;;;;;;;;;;5042206;28;19961;-68
2023/05/24 04:10:13;;;;;;;;;;;;;;;;;;5050141;28;19976;-68
2023/05/24 04:12:40;;;;;;;;;;;;;;;;;;5048302;28;19924;-68
2023/05/24 04:15:07;;;;;;;;;;;;;;;;;;5050019;28;19924;-68
2023/05/24 04:17:34;;;;;;;;;;;;;;;;;;5051020;28;19925;-68
2023/05/24 04:20:01;;;;;;;;;;;;;;;;;;5053691;28;19975;-68
2023/05/24 04:22:28;;;;;;;;;;;;;;;;;;5047253;28;19983;-68
2023/05/24 04:24:55;;;;;;;;;;;;;;;;;;5053153;28;19933;-68
2023/05/24 04:27:24;;;;;;;;;;;;;;;;;;5048776;28;19987;-68
2023/05/24 04:29:51;;;;;;;;;;;;;;;;;;5051407;28;20299;-67
2023/05/24 04:32:18;;;;;;;;;;;;;;;;;;5053817;28;19947;-67
2023/05/24 04:34:45;;;;;;;;;;;;;;;;;;5051654;28;20414;-68
2023/05/24 04:37:16;;;;;;;;;;;;;;;;;;5046094;28;19925;-68
2023/05/24 04:39:43;;;;;;;;;;;;;;;;;;5051454;28;19950;-69
2023/05/24 04:42:10;;;;;;;;;;;;;;;;;;4999454;22;1854826;-69
2023/05/24 04:44:37;;;;;;;;;;;;;;;;;;5083141;28;19931;-68
2023/05/24 04:47:04;;;;;;;;;;;;;;;;;;5076984;28;19956;-68
2023/05/24 04:49:31;;;;;;;;;;;;;;;;;;5071418;28;19971;-69
2023/05/24 04:51:58;;;;;;;;;;;;;;;;;;5084140;28;19924;-69
2023/05/24 04:54:25;;;;;;;;;;;;;;;;;;5074470;28;20363;-69
2023/05/24 04:56:52;;;;;;;;;;;;;;;;;;5083560;28;19959;-69
2023/05/24 04:59:19;;;;;;;;;;;;;;;;;;5081374;28;19928;-69
2023/05/24 05:01:46;;;;;;;;;;;;;;;;;;5077628;28;20455;-68
2023/05/24 05:04:13;;;;;;;;;;;;;;;;;;5084537;28;19924;-67
2023/05/24 05:06:42;;;;;;;;;;;;;;;;;;5070156;28;19929;-68
2023/05/24 05:09:09;;;;;;;;;;;;;;;;;;5081003;28;19924;-67
2023/05/24 05:11:36;;;;;;;;;;;;;;;;;;5089840;28;20032;-67
2023/05/24 05:14:03;;;;;;;;;;;;;;;;;;5080136;28;20420;-68
2023/05/24 05:16:30;;;;;;;;;;;;;;;;;;5078261;28;20558;-67
2023/05/24 05:18:57;;;;;;;;;;;;;;;;;;5084956;28;19924;-68
2023/05/24 05:21:24;;;;;;;;;;;;;;;;;;5086725;28;20031;-68
2023/05/24 05:23:51;;;;;;;;;;;;;;;;;;5072993;28;19936;-68
2023/05/24 05:26:18;;;;;;;;;;;;;;;;;;5080290;28;19929;-68
2023/05/24 05:28:45;;;;;;;;;;;;;;;;;;5064936;28;19986;-68
2023/05/24 05:31:12;;;;;;;;;;;;;;;;;;5072581;28;20444;-68
2023/05/24 05:33:39;;;;;;;;;;;;;;;;;;5075326;28;19924;-68
2023/05/24 05:36:06;;;;;;;;;;;;;;;;;;5083224;28;19924;-69
2023/05/24 05:38:33;;;;;;;;;;;;;;;;;;5072222;28;19928;-68
2023/05/24 05:41:00;;;;;;;;;;;;;;;;;;5072520;28;19999;-69
2023/05/24 05:43:27;;;;;;;;;;;;;;;;;;5071529;28;22175;-69
2023/05/24 05:45:55;;;;;;;;;;;;;;;;;;5076703;28;20352;-68
2023/05/24 05:48:22;;;;;;;;;;;;;;;;;;5074811;28;19970;-68
2023/05/24 05:50:49;;;;;;;;;;;;;;;;;;5071310;28;19925;-69
2023/05/24 05:53:16;;;;;;;;;;;;;;;;;;5071277;28;19978;-68
2023/05/24 05:55:43;;;;;;;;;;;;;;;;;;5072444;28;19924;-68
2023/05/24 05:58:10;;;;;;;;;;;;;;;;;;5064667;28;19978;-68
2023/05/24 06:00:37;;;;;;;;;;;;;;;;;;5071435;28;19935;-67
2023/05/24 06:03:04;;;;;;;;;;;;;;;;;;5071280;28;20456;-68
2023/05/24 06:05:31;;;;;;;;;;;;;;;;;;5076712;28;19970;-68
2023/05/24 06:07:58;;;;;;;;;;;;;;;;;;5073005;28;20387;-70
2023/05/24 06:10:26;;;;;;;;;;;;;;;;;;5072750;28;19931;-64
2023/05/24 06:12:53;;;;;;;;;;;;;;;;;;5070992;28;19925;-61
2023/05/24 06:15:21;;;;;;;;;;;;;;;;;;5072336;28;19939;-69
2023/05/24 06:17:48;;;;;;;;;;;;;;;;;;5070675;28;19972;-67
2023/05/24 06:20:15;;;;;;;;;;;;;;;;;;5064989;28;21129;-69
2023/05/24 06:22:43;;;;;;;;;;;;;;;;;;5068884;28;20020;-68
2023/05/24 06:25:14;;;;;;;;;;;;;;;;;;5069210;28;20024;-67
2023/05/24 06:27:41;;;;;;;;;;;;;;;;;;5052895;28;20414;-68
2023/05/24 06:30:08;;;;;;;;;;;;;;;;;;5067093;28;20384;-69
2023/05/24 06:32:36;;;;;;;;;;;;;;;;;;5072332;28;19928;-69
2023/05/24 06:35:03;;;;;;;;;;;;;;;;;;5072248;28;19971;-70
2023/05/24 06:37:29;;;;;;;;;;;;;;;;;;5064040;28;20334;-69
2023/05/24 06:39:57;;;;;;;;;;;;;;;;;;5063608;28;19924;-70
2023/05/24 06:42:23;;;;;;;;;;;;;;;;;;5072097;28;19932;-69
2023/05/24 06:44:50;;;;;;;;;;;;;;;;;;5072187;28;20021;-68
2023/05/24 06:47:17;;;;;;;;;;;;;;;;;;5072969;28;20383;-68
2023/05/24 06:49:44;;;;;;;;;;;;;;;;;;5072591;28;19924;-67
2023/05/24 06:52:12;;;;;;;;;;;;;;;;;;5071549;28;19940;-68
2023/05/24 06:54:39;;;;;;;;;;;;;;;;;;5061568;28;20299;-69
2023/05/24 06:57:07;;;;;;;;;;;;;;;;;;5069335;28;19928;-69
2023/05/24 06:59:34;;;;;;;;;;;;;;;;;;5071338;28;19978;-69
2023/05/24 07:02:01;;;;;;;;;;;;;;;;;;5071621;28;19925;-69
2023/05/24 07:04:29;;;;;;;;;;;;;;;;;;5070794;28;20379;-69
2023/05/24 07:06:57;;;;;;;;;;;;;;;;;;5071711;28;19925;-70
2023/05/24 07:09:24;;;;;;;;;;;;;;;;;;5072117;28;20019;-70
2023/05/24 07:11:51;;;;;;;;;;;;;;;;;;5070312;28;19928;-69
2023/05/24 07:14:18;;;;;;;;;;;;;;;;;;5065713;28;20346;-69
2023/05/24 07:16:45;;;;;;;;;;;;;;;;;;5071621;28;19967;-69
2023/05/24 07:19:12;;;;;;;;;;;;;;;;;;5071609;28;19933;-69
2023/05/24 07:21:39;;;;;;;;;;;;;;;;;;5065142;28;19971;-68
2023/05/24 07:24:06;;;;;;;;;;;;;;;;;;5066269;28;19931;-68
2023/05/24 07:26:33;;;;;;;;;;;;;;;;;;5069957;28;20037;-67
2023/05/24 07:29:00;;;;;;;;;;;;;;;;;;5065309;28;20299;-67
2023/05/24 07:31:30;;;;;;;;;;;;;;;;;;5058053;28;19970;-68
2023/05/24 07:33:57;;;;;;;;;;;;;;;;;;5072079;28;19943;-68
2023/05/24 07:36:24;;;;;;;;;;;;;;;;;;5081616;28;19924;-68
2023/05/24 07:38:52;;;;;;;;;;;;;;;;;;5080890;28;20027;-68
2023/05/24 07:41:19;;;;;;;;;;;;;;;;;;5065294;28;20343;-66
2023/05/24 07:43:46;;;;;;;;;;;;;;;;;;5063698;28;20041;-66
2023/05/24 07:46:13;;;;;;;;;;;;;;;;;;5063133;28;19933;-66
2023/05/24 07:48:40;;;;;;;;;;;;;;;;;;5062268;28;19960;-68
2023/05/24 07:51:07;;;;;;;;;;;;;;;;;;5055101;28;19925;-69
2023/05/24 07:53:36;;;;;;;;;;;;;;;;;;5061730;28;19925;-69
2023/05/24 07:56:03;;;;;;;;;;;;;;;;;;5059626;28;20327;-68
2023/05/24 07:58:30;;;;;;;;;;;;;;;;;;5064277;28;20015;-68
2023/05/24 08:00:57;;;;;;;;;;;;;;;;;;5065175;28;20375;-69
2023/05/24 08:03:25;;;;;;;;;;;;;;;;;;5063542;28;19928;-68
2023/05/24 08:05:52;;;;;;;;;;;;;;;;;;5061774;28;19924;-69
2023/05/24 08:08:19;;;;;;;;;;;;;;;;;;5064498;28;20007;-69
2023/05/24 08:10:46;;;;;;;;;;;;;;;;;;5063306;28;20007;-70
2023/05/24 08:13:13;;;;;;;;;;;;;;;;;;5064943;28;19932;-69
2023/05/24 08:15:40;;;;;;;;;;;;;;;;;;5068798;28;20018;-70
2023/05/24 08:18:08;;;;;;;;;;;;;;;;;;5063301;28;20003;-69
2023/05/24 08:20:36;;;;;;;;;;;;;;;;;;5068410;28;19928;-69
2023/05/24 08:23:03;;;;;;;;;;;;;;;;;;5062194;28;19939;-70
2023/05/24 08:25:30;;;;;;;;;;;;;;;;;;5060788;28;19928;-70
2023/05/24 08:27:57;;;;;;;;;;;;;;;;;;5073278;28;19972;-70
2023/05/24 08:30:24;;;;;;;;;;;;;;;;;;5068931;28;19924;-68
2023/05/24 08:32:52;;;;;;;;;;;;;;;;;;5064063;28;19978;-69
2023/05/24 08:35:19;;;;;;;;;;;;;;;;;;5059652;28;20066;-70
2023/05/24 08:37:46;;;;;;;;;;;;;;;;;;5067320;28;20280;-70
2023/05/24 08:40:13;;;;;;;;;;;;;;;;;;5063953;28;19925;-69
2023/05/24 08:42:40;;;;;;;;;;;;;;;;;;5061800;28;20386;-69
2023/05/24 08:45:08;;;;;;;;;;;;;;;;;;5065745;28;19972;-70
2023/05/24 08:47:35;;;;;;;;;;;;;;;;;;5066121;28;20025;-70
2023/05/24 08:50:02;;;;;;;;;;;;;;;;;;5060915;28;20053;-69
2023/05/24 08:52:29;;;;;;;;;;;;;;;;;;5069023;28;19960;-70
2023/05/24 08:54:56;;;;;;;;;;;;;;;;;;5078710;28;19924;-68
2023/05/24 08:57:23;;;;;;;;;;;;;;;;;;5068460;28;20287;-69
2023/05/24 08:59:51;;;;;;;;;;;;;;;;;;5065066;28;19975;-69
2023/05/24 09:02:18;;;;;;;;;;;;;;;;;;5066993;28;19924;-69
2023/05/24 09:04:45;;;;;;;;;;;;;;;;;;5067117;28;19924;-68
2023/05/24 09:07:12;;;;;;;;;;;;;;;;;;5070875;28;19929;-68
2023/05/24 09:09:43;;;;;;;;;;;;;;;;;;5064761;28;19985;-67
2023/05/24 09:12:10;;;;;;;;;;;;;;;;;;5068626;28;19931;-69
2023/05/24 09:14:37;;;;;;;;;;;;;;;;;;5067166;28;19978;-68
2023/05/24 09:17:04;;;;;;;;;;;;;;;;;;5068641;28;20013;-69
2023/05/24 09:19:31;;;;;;;;;;;;;;;;;;5066911;28;19924;-68
2023/05/24 09:21:58;;;;;;;;;;;;;;;;;;5070887;28;19924;-68
2023/05/24 09:24:25;;;;;;;;;;;;;;;;;;5068944;28;19947;-68
2023/05/24 09:26:52;;;;;;;;;;;;;;;;;;5066704;28;19924;-68
2023/05/24 09:29:20;;;;;;;;;;;;;;;;;;5076062;28;20488;-68
2023/05/24 09:31:47;;;;;;;;;;;;;;;;;;5072662;28;19928;-68
2023/05/24 09:34:14;;;;;;;;;;;;;;;;;;5073457;28;19932;-68
2023/05/24 09:36:42;;;;;;;;;;;;;;;;;;5071407;28;19993;-68
2023/05/24 09:39:09;;;;;;;;;;;;;;;;;;5070084;28;19928;-68
2023/05/24 09:41:36;;;;;;;;;;;;;;;;;;5075917;28;19924;-68
2023/05/24 09:44:03;;;;;;;;;;;;;;;;;;5065362;28;19925;-68
2023/05/24 09:46:30;;;;;;;;;;;;;;;;;;5068967;28;20015;-69
2023/05/24 09:48:58;;;;;;;;;;;;;;;;;;5067150;28;19955;-69
2023/05/24 09:51:25;;;;;;;;;;;;;;;;;;5073925;28;19931;-69
2023/05/24 09:53:53;;;;;;;;;;;;;;;;;;5075354;28;20355;-68
2023/05/24 09:56:20;;;;;;;;;;;;;;;;;;5068049;28;20277;-68
2023/05/24 09:58:47;;;;;;;;;;;;;;;;;;5067109;28;19929;-68
2023/05/24 10:01:15;;;;;;;;;;;;;;;;;;5070580;28;19975;-67
2023/05/24 10:03:42;;;;;;;;;;;;;;;;;;5065901;28;19933;-69
2023/05/24 10:06:10;;;;;;;;;;;;;;;;;;5066600;28;19932;-68
2023/05/24 10:08:37;;;;;;;;;;;;;;;;;;5055718;28;20403;-69
2023/05/24 10:11:04;;;;;;;;;;;;;;;;;;5066300;28;20314;-68
2023/05/24 10:13:32;;;;;;;;;;;;;;;;;;5075767;28;19960;-68
2023/05/24 10:15:59;;;;;;;;;;;;;;;;;;5062925;28;20288;-68
2023/05/24 10:18:26;;;;;;;;;;;;;;;;;;5068074;28;19932;-68
2023/05/24 10:20:53;;;;;;;;;;;;;;;;;;5067239;28;19935;-69
2023/05/24 10:23:20;;;;;;;;;;;;;;;;;;5069939;28;19978;-69
2023/05/24 10:25:48;;;;;;;;;;;;;;;;;;5067580;28;19956;-69
2023/05/24 10:28:16;;;;;;;;;;;;;;;;;;5069044;28;19940;-69
2023/05/24 10:30:42;;;;;;;;;;;;;;;;;;5072331;28;20287;-69
2023/05/24 10:33:09;;;;;;;;;;;;;;;;;;5068299;28;19925;-70
2023/05/24 10:35:37;;;;;;;;;;;;;;;;;;5065779;28;19994;-69
2023/05/24 10:38:04;;;;;;;;;;;;;;;;;;5070692;28;19986;-68
2023/05/24 10:40:31;;;;;;;;;;;;;;;;;;5069898;28;20726;-69
2023/05/24 10:42:58;;;;;;;;;;;;;;;;;;5067722;28;20025;-68
2023/05/24 10:45:25;;;;;;;;;;;;;;;;;;5071711;28;20371;-69
2023/05/24 10:47:52;;;;;;;;;;;;;;;;;;5066535;28;19933;-68
2023/05/24 10:50:19;;;;;;;;;;;;;;;;;;5069374;28;19924;-68
2023/05/24 10:52:46;;;;;;;;;;;;;;;;;;5062734;28;20031;-69
2023/05/24 10:55:13;;;;;;;;;;;;;;;;;;5066230;28;20405;-69
2023/05/24 10:57:40;;;;;;;;;;;;;;;;;;5067931;28;19967;-69
2023/05/24 11:00:10;;;;;;;;;;;;;;;;;;5064259;28;19947;-70
2023/05/24 11:02:38;;;;;;;;;;;;;;;;;;5067165;28;19982;-70
2023/05/24 11:05:05;;;;;;;;;;;;;;;;;;5068769;28;20039;-69
2023/05/24 11:07:33;;;;;;;;;;;;;;;;;;5063654;28;19980;-71
2023/05/24 11:10:05;;;;;;;;;;;;;;;;;;5065625;28;19934;-69
2023/05/24 11:12:37;;;;;;;;;;;;;;;;;;5083341;28;20440;-69
2023/05/24 11:15:04;;;;;;;;;;;;;;;;;;5063966;28;19924;-69
2023/05/24 11:17:31;;;;;;;;;;;;;;;;;;5075829;28;20436;-70
2023/05/24 11:19:59;;;;;;;;;;;;;;;;;;5070260;28;19924;-71
2023/05/24 11:22:26;;;;;;;;;;;;;;;;;;5070020;28;19975;-70
2023/05/24 11:24:55;;;;;;;;;;;;;;;;;;5071207;28;19931;-73
2023/05/24 11:27:22;;;;;;;;;;;;;;;;;;5061850;28;19936;-70
2023/05/24 11:29:50;;;;;;;;;;;;;;;;;;5070388;28;20341;-71
2023/05/24 11:32:18;;;;;;;;;;;;;;;;;;5063263;28;19928;-72
2023/05/24 11:34:45;;;;;;;;;;;;;;;;;;5069618;28;19952;-70
2023/05/24 11:37:12;;;;;;;;;;;;;;;;;;5063683;28;19925;-70
2023/05/24 11:39:39;;;;;;;;;;;;;;;;;;5059556;28;19925;-71
2023/05/24 11:42:06;;;;;;;;;;;;;;;;;;5060728;28;19932;-70
2023/05/24 11:44:33;;;;;;;;;;;;;;;;;;5064275;28;19924;-69
2023/05/24 11:47:00;;;;;;;;;;;;;;;;;;5057290;28;19990;-71
2023/05/24 11:49:27;;;;;;;;;;;;;;;;;;5059281;28;20387;-70
2023/05/24 11:51:54;;;;;;;;;;;;;;;;;;5060640;28;20005;-70
2023/05/24 11:54:22;;;;;;;;;;;;;;;;;;5063579;28;19931;-71
2023/05/24 11:56:49;;;;;;;;;;;;;;;;;;5065412;28;19928;-70
2023/05/24 11:59:16;;;;;;;;;;;;;;;;;;5066123;28;20444;-70
2023/05/24 12:01:43;;;;;;;;;;;;;;;;;;5058975;28;19946;-71
2023/05/24 12:04:10;;;;;;;;;;;;;;;;;;5055697;28;19931;-75
2023/05/24 12:06:37;;;;;;;;;;;;;;;;;;5056775;28;19932;-70
2023/05/24 12:09:07;;;;;;;;;;;;;;;;;;5064370;28;20429;-69
2023/05/24 12:11:34;;;;;;;;;;;;;;;;;;5064941;28;20588;-70
2023/05/24 12:14:01;;;;;;;;;;;;;;;;;;5068021;28;19928;-69
2023/05/24 12:16:30;;;;;;;;;;;;;;;;;;5058995;28;19933;-71
2023/05/24 12:18:58;;;;;;;;;;;;;;;;;;5061733;28;19939;-71
2023/05/24 12:21:25;;;;;;;;;;;;;;;;;;5058713;28;19944;-70
2023/05/24 12:23:52;;;;;;;;;;;;;;;;;;5061929;28;19964;-71
2023/05/24 12:26:21;;;;;;;;;;;;;;;;;;5067117;28;19963;-71
2023/05/24 12:28:48;;;;;;;;;;;;;;;;;;5059653;28;19924;-70
2023/05/24 12:31:15;;;;;;;;;;;;;;;;;;5063463;28;19924;-70
2023/05/24 12:33:42;;;;;;;;;;;;;;;;;;5066245;28;19924;-71
2023/05/24 12:36:09;;;;;;;;;;;;;;;;;;5061660;28;19970;-70
2023/05/24 12:38:36;;;;;;;;;;;;;;;;;;5065575;28;20013;-71
2023/05/24 12:41:04;;;;;;;;;;;;;;;;;;5069024;28;19971;-70
2023/05/24 12:43:31;;;;;;;;;;;;;;;;;;5068812;28;19924;-71
2023/05/24 12:45:59;;;;;;;;;;;;;;;;;;5066083;28;20010;-70
2023/05/24 12:48:26;;;;;;;;;;;;;;;;;;5067222;28;19932;-70
2023/05/24 12:50:52;;;;;;;;;;;;;;;;;;5066389;28;19984;-71
2023/05/24 12:53:22;;;;;;;;;;;;;;;;;;5065536;28;22210;-69
2023/05/24 12:55:50;;;;;;;;;;;;;;;;;;5063174;28;20410;-69
2023/05/24 12:58:18;;;;;;;;;;;;;;;;;;5059338;28;20348;-69
2023/05/24 13:00:48;;;;;;;;;;;;;;;;;;5068292;28;20019;-69
2023/05/24 13:03:15;;;;;;;;;;;;;;;;;;5066260;28;19924;-67
2023/05/24 13:05:43;;;;;;;;;;;;;;;;;;5065539;28;19980;-67
2023/05/24 13:08:10;;;;;;;;;;;;;;;;;;5066405;28;20389;-67
2023/05/24 13:10:37;;;;;;;;;;;;;;;;;;5070531;28;19932;-67
2023/05/24 13:13:04;;;;;;;;;;;;;;;;;;5069792;28;20284;-67
2023/05/24 13:15:31;;;;;;;;;;;;;;;;;;5068190;28;19925;-78
2023/05/24 13:17:58;;;;;;;;;;;;;;;;;;5072535;28;19967;-68
2023/05/24 13:20:25;;;;;;;;;;;;;;;;;;5063089;28;20007;-68
2023/05/24 13:22:52;;;;;;;;;;;;;;;;;;5069981;28;19928;-69
2023/05/24 13:25:21;;;;;;;;;;;;;;;;;;5063949;28;19924;-69
2023/05/24 13:27:48;;;;;;;;;;;;;;;;;;5064551;28;19936;-68
2023/05/24 13:30:16;;;;;;;;;;;;;;;;;;5059888;28;20338;-69
2023/05/24 13:32:43;;;;;;;;;;;;;;;;;;5065623;28;19936;-68
2023/05/24 13:35:13;;;;;;;;;;;;;;;;;;5064768;28;19936;-68
2023/05/24 13:37:40;;;;;;;;;;;;;;;;;;5065678;28;19970;-70
2023/05/24 13:40:07;;;;;;;;;;;;;;;;;;5066315;28;19966;-70
2023/05/24 13:42:34;;;;;;;;;;;;;;;;;;5064977;28;19931;-69
2023/05/24 13:45:02;;;;;;;;;;;;;;;;;;5066701;28;19936;-69
2023/05/24 13:47:29;;;;;;;;;;;;;;;;;;5062706;28;19924;-69
2023/05/24 13:49:56;;;;;;;;;;;;;;;;;;5061646;28;20387;-68
2023/05/24 13:52:23;;;;;;;;;;;;;;;;;;5065741;28;19925;-69
2023/05/24 13:54:51;;;;;;;;;;;;;;;;;;5064975;28;20425;-69
2023/05/24 13:57:18;;;;;;;;;;;;;;;;;;5064569;28;20007;-69
2023/05/24 13:59:45;;;;;;;;;;;;;;;;;;5069699;28;20264;-69
2023/05/24 14:02:12;;;;;;;;;;;;;;;;;;5067766;28;20009;-69
2023/05/24 14:04:39;;;;;;;;;;;;;;;;;;5067632;28;19925;-68
2023/05/24 14:07:08;;;;;;;;;;;;;;;;;;5065633;28;19955;-68
2023/05/24 14:09:35;;;;;;;;;;;;;;;;;;5062762;28;19943;-69
2023/05/24 14:12:03;;;;;;;;;;;;;;;;;;5067435;28;19925;-69
2023/05/24 14:14:30;;;;;;;;;;;;;;;;;;5069847;28;19925;-69
2023/05/24 14:16:57;;;;;;;;;;;;;;;;;;5065531;28;20302;-69
2023/05/24 14:19:24;;;;;;;;;;;;;;;;;;5065832;28;19956;-69
2023/05/24 14:21:51;;;;;;;;;;;;;;;;;;5068510;28;19933;-69
2023/05/24 14:24:18;;;;;;;;;;;;;;;;;;5067752;28;19928;-69
2023/05/24 14:26:46;;;;;;;;;;;;;;;;;;5069713;28;19939;-68
2023/05/24 14:29:13;;;;;;;;;;;;;;;;;;5070357;28;20334;-68
2023/05/24 14:31:41;;;;;;;;;;;;;;;;;;5065194;28;19924;-70
2023/05/24 14:34:09;;;;;;;;;;;;;;;;;;5065590;28;19924;-66
2023/05/24 14:36:37;;;;;;;;;;;;;;;;;;5067204;28;19928;-68
2023/05/24 14:39:04;;;;;;;;;;;;;;;;;;5068096;28;20307;-66
2023/05/24 14:41:31;;;;;;;;;;;;;;;;;;5071848;28;19931;-67
2023/05/24 14:43:58;;;;;;;;;;;;;;;;;;5062975;28;19993;-66
2023/05/24 14:46:25;;;;;;;;;;;;;;;;;;5064713;28;19964;-66
2023/05/24 14:48:52;;;;;;;;;;;;;;;;;;5066753;28;20563;-66
2023/05/24 14:51:19;;;;;;;;;;;;;;;;;;5065694;28;19932;-67
2023/05/24 14:53:46;;;;;;;;;;;;;;;;;;5065071;28;19932;-66
2023/05/24 14:56:13;;;;;;;;;;;;;;;;;;5065026;28;19925;-67
2023/05/24 14:58:40;;;;;;;;;;;;;;;;;;5067543;28;19934;-67
2023/05/24 15:01:07;;;;;;;;;;;;;;;;;;5066332;28;20387;-66
2023/05/24 15:03:34;;;;;;;;;;;;;;;;;;5069062;28;20019;-67
2023/05/24 15:06:04;;;;;;;;;;;;;;;;;;5066025;28;19933;-67
2023/05/24 15:08:33;;;;;;;;;;;;;;;;;;5065525;28;19939;-67
2023/05/24 15:11:00;;;;;;;;;;;;;;;;;;5057233;28;19955;-67
2023/05/24 15:13:27;;;;;;;;;;;;;;;;;;5072861;28;19959;-67
2023/05/24 15:15:56;;;;;;;;;;;;;;;;;;5061038;28;20368;-67
2023/05/24 15:18:26;;;;;;;;;;;;;;;;;;5064526;28;20018;-67
2023/05/24 15:20:53;;;;;;;;;;;;;;;;;;5062226;28;19939;-67
2023/05/24 15:23:20;;;;;;;;;;;;;;;;;;5064028;28;20034;-67
2023/05/24 15:25:47;;;;;;;;;;;;;;;;;;5065293;28;19924;-67
2023/05/24 15:28:16;;;;;;;;;;;;;;;;;;5061362;28;19924;-67
2023/05/24 15:30:44;;;;;;;;;;;;;;;;;;5061135;28;20494;-67
2023/05/24 15:33:11;;;;;;;;;;;;;;;;;;5064794;28;19939;-66
2023/05/24 15:35:38;;;;;;;;;;;;;;;;;;5072152;28;19994;-67
2023/05/24 15:38:05;;;;;;;;;;;;;;;;;;5066738;28;19925;-67
2023/05/24 15:40:32;;;;;;;;;;;;;;;;;;5058401;28;19925;-68
2023/05/24 15:42:59;;;;;;;;;;;;;;;;;;5065762;28;19994;-67
2023/05/24 15:45:27;;;;;;;;;;;;;;;;;;5065054;28;19978;-66
2023/05/24 15:47:54;;;;;;;;;;;;;;;;;;5063929;28;20466;-68
2023/05/24 15:50:21;;;;;;;;;;;;;;;;;;5078290;28;19924;-67
2023/05/24 15:52:48;;;;;;;;;;;;;;;;;;5071419;28;19925;-68
2023/05/24 15:55:15;;;;;;;;;;;;;;;;;;5067386;28;19928;-67
2023/05/24 15:57:42;;;;;;;;;;;;;;;;;;5064417;28;19928;-67
2023/05/24 16:00:10;;;;;;;;;;;;;;;;;;5065920;28;19924;-73
2023/05/24 16:02:37;;;;;;;;;;;;;;;;;;5064011;28;19928;-68
2023/05/24 16:05:04;;;;;;;;;;;;;;;;;;5061032;28;19932;-67
2023/05/24 16:07:31;;;;;;;;;;;;;;;;;;5060261;28;19928;-67
2023/05/24 16:09:58;;;;;;;;;;;;;;;;;;5069468;28;20005;-68
2023/05/24 16:12:25;;;;;;;;;;;;;;;;;;5069221;28;20387;-68
2023/05/24 16:14:52;;;;;;;;;;;;;;;;;;5078061;28;19924;-67
2023/05/24 16:17:20;;;;;;;;;;;;;;;;;;5074424;28;19929;-67
2023/05/24 16:19:48;;;;;;;;;;;;;;;;;;5074074;28;19924;-66
2023/05/24 16:22:16;;;;;;;;;;;;;;;;;;5072770;28;19928;-67
2023/05/24 16:24:42;;;;;;;;;;;;;;;;;;5066737;28;19928;-68
2023/05/24 16:27:10;;;;;;;;;;;;;;;;;;5069197;28;20109;-67
2023/05/24 16:29:37;;;;;;;;;;;;;;;;;;5072392;28;19924;-69
2023/05/24 16:32:04;;;;;;;;;;;;;;;;;;5069960;28;19924;-69
2023/05/24 16:34:31;;;;;;;;;;;;;;;;;;5072123;28;19925;-70
2023/05/24 16:36:58;;;;;;;;;;;;;;;;;;5062213;28;20470;-70
2023/05/24 16:39:25;;;;;;;;;;;;;;;;;;5071243;28;19925;-68
2023/05/24 16:41:52;;;;;;;;;;;;;;;;;;5072567;28;19928;-68
2023/05/24 16:44:19;;;;;;;;;;;;;;;;;;5062726;28;19924;-70